sensor_id;sensor_type;location;lat;lon;timestamp;temperature;humidity
60495;DHT22;46342;49.046;11.920;2022-10-22T00:02:23;14.70;70.10
60495;DHT22;46342;49.046;11.920;2022-10-22T00:04:49;14.60;70.00
60495;DHT22;46342;49.046;11.920;2022-10-22T00:07:17;14.60;70.10
60495;DHT22;46342;49.046;11.920;2022-10-22T00:09:42;14.70;70.30
60495;DHT22;46342;49.046;11.920;2022-10-22T00:12:09;14.70;70.10
60495;DHT22;46342;49.046;11.920;2022-10-22T00:14:35;14.60;70.10
60495;DHT22;46342;49.046;11.920;2022-10-22T00:17:01;14.60;70.10
60495;DHT22;46342;49.046;11.920;2022-10-22T00:19:27;14.70;70.20
60495;DHT22;46342;49.046;11.920;2022-10-22T00:21:53;14.60;70.20
60495;DHT22;46342;49.046;11.920;2022-10-22T00:24:19;14.70;70.30
60495;DHT22;46342;49.046;11.920;2022-10-22T00:26:44;14.60;70.20
60495;DHT22;46342;49.046;11.920;2022-10-22T00:29:10;14.60;70.20
60495;DHT22;46342;49.046;11.920;2022-10-22T00:31:36;14.60;70.20
60495;DHT22;46342;49.046;11.920;2022-10-22T00:34:01;14.70;71.20
60495;DHT22;46342;49.046;11.920;2022-10-22T00:36:27;14.60;70.30
60495;DHT22;46342;49.046;11.920;2022-10-22T00:38:53;14.60;70.30
60495;DHT22;46342;49.046;11.920;2022-10-22T00:41:18;14.60;70.40
60495;DHT22;46342;49.046;11.920;2022-10-22T00:46:57;14.60;71.20
60495;DHT22;46342;49.046;11.920;2022-10-22T00:49:23;14.60;70.30
60495;DHT22;46342;49.046;11.920;2022-10-22T00:51:48;14.50;70.30
60495;DHT22;46342;49.046;11.920;2022-10-22T00:54:14;14.60;70.50
60495;DHT22;46342;49.046;11.920;2022-10-22T00:56:40;14.60;70.50
60495;DHT22;46342;49.046;11.920;2022-10-22T00:59:06;14.60;70.60
60495;DHT22;46342;49.046;11.920;2022-10-22T01:01:32;14.60;70.60
60495;DHT22;46342;49.046;11.920;2022-10-22T01:03:59;14.60;70.60
60495;DHT22;46342;49.046;11.920;2022-10-22T01:06:31;14.60;70.80
60495;DHT22;46342;49.046;11.920;2022-10-22T01:14:35;14.70;71.30
60495;DHT22;46342;49.046;11.920;2022-10-22T01:22:53;14.70;72.60
60495;DHT22;46342;49.046;11.920;2022-10-22T01:30:28;14.60;71.00
60495;DHT22;46342;49.046;11.920;2022-10-22T01:32:58;14.60;70.80
60495;DHT22;46342;49.046;11.920;2022-10-22T01:35:31;14.60;71.20
60495;DHT22;46342;49.046;11.920;2022-10-22T01:38:00;14.60;71.40
60495;DHT22;46342;49.046;11.920;2022-10-22T01:40:28;14.60;71.20
60495;DHT22;46342;49.046;11.920;2022-10-22T01:43:03;14.70;71.20
60495;DHT22;46342;49.046;11.920;2022-10-22T01:45:51;14.70;71.50
60495;DHT22;46342;49.046;11.920;2022-10-22T01:54:02;14.70;71.80
60495;DHT22;46342;49.046;11.920;2022-10-22T02:04:32;14.70;71.30
60495;DHT22;46342;49.046;11.920;2022-10-22T02:07:01;14.70;72.20
60495;DHT22;46342;49.046;11.920;2022-10-22T02:09:29;14.70;71.90
60495;DHT22;46342;49.046;11.920;2022-10-22T02:11:57;14.70;72.00
60495;DHT22;46342;49.046;11.920;2022-10-22T02:14:24;14.70;72.00
60495;DHT22;46342;49.046;11.920;2022-10-22T02:16:52;14.70;72.10
60495;DHT22;46342;49.046;11.920;2022-10-22T02:19:36;14.60;71.80
60495;DHT22;46342;49.046;11.920;2022-10-22T02:22:03;14.80;73.20
60495;DHT22;46342;49.046;11.920;2022-10-22T02:24:29;14.70;72.00
60495;DHT22;46342;49.046;11.920;2022-10-22T02:32:09;14.80;73.00
60495;DHT22;46342;49.046;11.920;2022-10-22T02:34:35;14.80;73.00
60495;DHT22;46342;49.046;11.920;2022-10-22T02:37:02;14.80;72.50
60495;DHT22;46342;49.046;11.920;2022-10-22T02:39:29;14.90;72.90
60495;DHT22;46342;49.046;11.920;2022-10-22T02:41:55;14.90;72.80
60495;DHT22;46342;49.046;11.920;2022-10-22T02:44:23;14.90;72.50
60495;DHT22;46342;49.046;11.920;2022-10-22T02:46:49;14.90;72.50
60495;DHT22;46342;49.046;11.920;2022-10-22T02:49:15;15.00;72.60
60495;DHT22;46342;49.046;11.920;2022-10-22T02:51:40;15.00;72.70
60495;DHT22;46342;49.046;11.920;2022-10-22T02:54:06;15.00;72.70
60495;DHT22;46342;49.046;11.920;2022-10-22T02:56:32;15.00;72.70
60495;DHT22;46342;49.046;11.920;2022-10-22T02:58:58;15.00;72.70
60495;DHT22;46342;49.046;11.920;2022-10-22T03:01:23;15.10;72.70
60495;DHT22;46342;49.046;11.920;2022-10-22T03:03:49;15.00;72.70
60495;DHT22;46342;49.046;11.920;2022-10-22T03:06:15;15.00;72.70
60495;DHT22;46342;49.046;11.920;2022-10-22T03:08:40;15.10;72.70
60495;DHT22;46342;49.046;11.920;2022-10-22T03:11:06;15.10;72.80
60495;DHT22;46342;49.046;11.920;2022-10-22T03:13:32;15.10;72.70
60495;DHT22;46342;49.046;11.920;2022-10-22T03:15:57;15.10;72.70
60495;DHT22;46342;49.046;11.920;2022-10-22T03:18:23;15.10;72.70
60495;DHT22;46342;49.046;11.920;2022-10-22T03:20:48;15.10;72.70
60495;DHT22;46342;49.046;11.920;2022-10-22T03:23:16;15.10;72.70
60495;DHT22;46342;49.046;11.920;2022-10-22T03:25:46;15.10;72.80
60495;DHT22;46342;49.046;11.920;2022-10-22T03:28:14;15.10;72.80
60495;DHT22;46342;49.046;11.920;2022-10-22T03:30:41;15.20;72.90
60495;DHT22;46342;49.046;11.920;2022-10-22T03:33:06;15.10;72.60
60495;DHT22;46342;49.046;11.920;2022-10-22T03:35:36;15.20;72.80
60495;DHT22;46342;49.046;11.920;2022-10-22T03:38:05;15.20;73.10
60495;DHT22;46342;49.046;11.920;2022-10-22T03:40:30;15.10;72.70
60495;DHT22;46342;49.046;11.920;2022-10-22T03:42:57;15.20;72.90
60495;DHT22;46342;49.046;11.920;2022-10-22T03:45:23;15.20;73.00
60495;DHT22;46342;49.046;11.920;2022-10-22T03:47:48;15.20;72.80
60495;DHT22;46342;49.046;11.920;2022-10-22T03:50:14;15.20;72.80
60495;DHT22;46342;49.046;11.920;2022-10-22T03:52:41;15.20;72.80
60495;DHT22;46342;49.046;11.920;2022-10-22T03:55:07;15.20;72.90
60495;DHT22;46342;49.046;11.920;2022-10-22T03:57:33;15.20;73.00
60495;DHT22;46342;49.046;11.920;2022-10-22T03:59:59;15.20;73.00
60495;DHT22;46342;49.046;11.920;2022-10-22T04:02:24;15.20;73.10
60495;DHT22;46342;49.046;11.920;2022-10-22T04:04:50;15.20;73.20
60495;DHT22;46342;49.046;11.920;2022-10-22T04:07:16;15.30;73.40
60495;DHT22;46342;49.046;11.920;2022-10-22T04:09:41;15.30;73.40
60495;DHT22;46342;49.046;11.920;2022-10-22T04:12:07;15.20;73.30
60495;DHT22;46342;49.046;11.920;2022-10-22T04:14:34;15.30;73.50
60495;DHT22;46342;49.046;11.920;2022-10-22T04:16:59;15.30;73.50
60495;DHT22;46342;49.046;11.920;2022-10-22T04:19:25;15.20;73.50
60495;DHT22;46342;49.046;11.920;2022-10-22T04:21:51;15.30;73.70
60495;DHT22;46342;49.046;11.920;2022-10-22T04:24:16;15.30;73.80
60495;DHT22;46342;49.046;11.920;2022-10-22T04:26:42;15.30;73.80
60495;DHT22;46342;49.046;11.920;2022-10-22T04:29:08;15.30;73.80
60495;DHT22;46342;49.046;11.920;2022-10-22T04:31:33;15.40;74.10
60495;DHT22;46342;49.046;11.920;2022-10-22T04:34:00;15.40;74.00
60495;DHT22;46342;49.046;11.920;2022-10-22T04:36:26;15.40;74.10
60495;DHT22;46342;49.046;11.920;2022-10-22T04:38:55;15.40;73.90
60495;DHT22;46342;49.046;11.920;2022-10-22T04:41:24;15.40;74.10
60495;DHT22;46342;49.046;11.920;2022-10-22T04:43:50;15.40;74.20
60495;DHT22;46342;49.046;11.920;2022-10-22T04:46:17;15.50;74.10
60495;DHT22;46342;49.046;11.920;2022-10-22T04:48:44;15.50;74.10
60495;DHT22;46342;49.046;11.920;2022-10-22T04:51:12;15.50;74.10
60495;DHT22;46342;49.046;11.920;2022-10-22T04:53:39;15.50;74.30
60495;DHT22;46342;49.046;11.920;2022-10-22T04:58:40;15.60;74.70
60495;DHT22;46342;49.046;11.920;2022-10-22T05:01:15;15.50;74.00
60495;DHT22;46342;49.046;11.920;2022-10-22T05:03:41;15.60;74.60
60495;DHT22;46342;49.046;11.920;2022-10-22T05:06:07;15.60;74.20
60495;DHT22;46342;49.046;11.920;2022-10-22T05:08:33;15.60;74.20
60495;DHT22;46342;49.046;11.920;2022-10-22T05:10:58;15.60;74.20
60495;DHT22;46342;49.046;11.920;2022-10-22T05:13:24;15.60;74.20
60495;DHT22;46342;49.046;11.920;2022-10-22T05:15:52;15.60;74.20
60495;DHT22;46342;49.046;11.920;2022-10-22T05:18:18;15.60;74.20
60495;DHT22;46342;49.046;11.920;2022-10-22T05:20:47;15.70;74.30
60495;DHT22;46342;49.046;11.920;2022-10-22T05:23:12;15.70;74.70
60495;DHT22;46342;49.046;11.920;2022-10-22T05:25:38;15.60;74.20
60495;DHT22;46342;49.046;11.920;2022-10-22T05:28:04;15.70;74.30
60495;DHT22;46342;49.046;11.920;2022-10-22T05:30:29;15.70;74.30
60495;DHT22;46342;49.046;11.920;2022-10-22T05:32:55;15.70;74.30
60495;DHT22;46342;49.046;11.920;2022-10-22T05:35:20;15.70;74.30
60495;DHT22;46342;49.046;11.920;2022-10-22T05:37:46;15.70;74.40
60495;DHT22;46342;49.046;11.920;2022-10-22T05:40:11;15.70;74.40
60495;DHT22;46342;49.046;11.920;2022-10-22T05:42:37;15.80;74.50
60495;DHT22;46342;49.046;11.920;2022-10-22T05:45:03;15.70;74.50
60495;DHT22;46342;49.046;11.920;2022-10-22T05:47:29;15.70;74.60
60495;DHT22;46342;49.046;11.920;2022-10-22T05:49:55;15.70;74.60
60495;DHT22;46342;49.046;11.920;2022-10-22T05:52:24;15.70;74.50
60495;DHT22;46342;49.046;11.920;2022-10-22T05:54:49;15.70;74.50
60495;DHT22;46342;49.046;11.920;2022-10-22T05:57:15;15.70;74.50
60495;DHT22;46342;49.046;11.920;2022-10-22T05:59:40;15.70;74.50
60495;DHT22;46342;49.046;11.920;2022-10-22T06:02:08;15.70;74.50
60495;DHT22;46342;49.046;11.920;2022-10-22T06:04:34;15.70;74.70
60495;DHT22;46342;49.046;11.920;2022-10-22T06:07:00;15.70;74.50
60495;DHT22;46342;49.046;11.920;2022-10-22T06:09:29;15.70;75.40
60495;DHT22;46342;49.046;11.920;2022-10-22T06:11:56;15.80;74.70
60495;DHT22;46342;49.046;11.920;2022-10-22T06:14:23;15.80;74.50
60495;DHT22;46342;49.046;11.920;2022-10-22T06:16:49;15.80;74.50
60495;DHT22;46342;49.046;11.920;2022-10-22T06:19:17;15.80;74.40
60495;DHT22;46342;49.046;11.920;2022-10-22T06:21:43;15.80;74.60
60495;DHT22;46342;49.046;11.920;2022-10-22T06:24:09;15.80;74.40
60495;DHT22;46342;49.046;11.920;2022-10-22T06:26:35;15.80;74.30
60495;DHT22;46342;49.046;11.920;2022-10-22T06:29:01;15.70;74.20
60495;DHT22;46342;49.046;11.920;2022-10-22T06:31:27;15.70;74.10
60495;DHT22;46342;49.046;11.920;2022-10-22T06:33:55;15.80;74.40
60495;DHT22;46342;49.046;11.920;2022-10-22T06:36:22;15.80;74.20
60495;DHT22;46342;49.046;11.920;2022-10-22T06:38:55;15.80;74.40
60495;DHT22;46342;49.046;11.920;2022-10-22T06:41:22;15.80;74.60
60495;DHT22;46342;49.046;11.920;2022-10-22T06:43:48;15.80;74.20
60495;DHT22;46342;49.046;11.920;2022-10-22T06:46:16;15.80;74.20
60495;DHT22;46342;49.046;11.920;2022-10-22T06:48:43;15.80;74.40
60495;DHT22;46342;49.046;11.920;2022-10-22T06:51:12;15.80;74.30
60495;DHT22;46342;49.046;11.920;2022-10-22T06:53:40;15.80;74.30
60495;DHT22;46342;49.046;11.920;2022-10-22T06:56:06;15.80;74.50
60495;DHT22;46342;49.046;11.920;2022-10-22T06:58:32;15.80;74.80
60495;DHT22;46342;49.046;11.920;2022-10-22T07:01:06;15.80;74.00
60495;DHT22;46342;49.046;11.920;2022-10-22T07:03:32;15.80;74.60
60495;DHT22;46342;49.046;11.920;2022-10-22T07:06:00;15.80;74.20
60495;DHT22;46342;49.046;11.920;2022-10-22T07:08:26;15.80;74.30
60495;DHT22;46342;49.046;11.920;2022-10-22T07:10:52;15.80;74.20
60495;DHT22;46342;49.046;11.920;2022-10-22T07:13:18;15.70;74.20
60495;DHT22;46342;49.046;11.920;2022-10-22T07:15:43;15.80;74.40
60495;DHT22;46342;49.046;11.920;2022-10-22T07:18:09;15.80;74.40
60495;DHT22;46342;49.046;11.920;2022-10-22T07:20:34;15.80;74.40
60495;DHT22;46342;49.046;11.920;2022-10-22T07:23:00;15.80;74.50
60495;DHT22;46342;49.046;11.920;2022-10-22T07:25:25;15.80;74.60
60495;DHT22;46342;49.046;11.920;2022-10-22T07:27:51;15.80;74.60
60495;DHT22;46342;49.046;11.920;2022-10-22T07:30:16;15.80;74.60
60495;DHT22;46342;49.046;11.920;2022-10-22T07:32:42;15.80;74.60
60495;DHT22;46342;49.046;11.920;2022-10-22T07:35:08;15.80;74.60
60495;DHT22;46342;49.046;11.920;2022-10-22T07:37:34;15.80;74.70
60495;DHT22;46342;49.046;11.920;2022-10-22T07:39:59;15.90;74.80
60495;DHT22;46342;49.046;11.920;2022-10-22T07:42:25;15.90;74.90
60495;DHT22;46342;49.046;11.920;2022-10-22T07:44:50;15.90;74.80
60495;DHT22;46342;49.046;11.920;2022-10-22T07:47:16;15.90;74.90
60495;DHT22;46342;49.046;11.920;2022-10-22T07:49:41;15.90;74.90
60495;DHT22;46342;49.046;11.920;2022-10-22T07:52:07;15.90;74.90
60495;DHT22;46342;49.046;11.920;2022-10-22T07:54:33;15.90;74.80
60495;DHT22;46342;49.046;11.920;2022-10-22T07:56:58;16.00;75.00
60495;DHT22;46342;49.046;11.920;2022-10-22T07:59:24;16.00;74.90
60495;DHT22;46342;49.046;11.920;2022-10-22T08:01:49;16.00;74.80
60495;DHT22;46342;49.046;11.920;2022-10-22T08:04:15;16.00;74.70
60495;DHT22;46342;49.046;11.920;2022-10-22T08:06:40;16.00;74.70
60495;DHT22;46342;49.046;11.920;2022-10-22T08:09:06;16.00;74.70
60495;DHT22;46342;49.046;11.920;2022-10-22T08:11:32;16.00;74.60
60495;DHT22;46342;49.046;11.920;2022-10-22T08:13:58;16.00;74.60
60495;DHT22;46342;49.046;11.920;2022-10-22T08:16:24;16.00;74.60
60495;DHT22;46342;49.046;11.920;2022-10-22T08:18:50;16.00;74.50
60495;DHT22;46342;49.046;11.920;2022-10-22T08:21:16;16.00;74.50
60495;DHT22;46342;49.046;11.920;2022-10-22T08:23:42;16.00;74.50
60495;DHT22;46342;49.046;11.920;2022-10-22T08:26:08;16.00;74.70
60495;DHT22;46342;49.046;11.920;2022-10-22T08:28:34;16.00;74.70
60495;DHT22;46342;49.046;11.920;2022-10-22T08:31:06;16.00;74.70
60495;DHT22;46342;49.046;11.920;2022-10-22T08:33:32;16.00;74.80
60495;DHT22;46342;49.046;11.920;2022-10-22T08:35:58;16.00;74.70
60495;DHT22;46342;49.046;11.920;2022-10-22T08:38:23;16.00;74.80
60495;DHT22;46342;49.046;11.920;2022-10-22T08:40:53;16.10;75.00
60495;DHT22;46342;49.046;11.920;2022-10-22T08:43:51;16.10;75.20
60495;DHT22;46342;49.046;11.920;2022-10-22T08:48:57;16.10;74.90
60495;DHT22;46342;49.046;11.920;2022-10-22T08:51:26;16.10;75.20
60495;DHT22;46342;49.046;11.920;2022-10-22T08:56:28;16.20;75.80
60495;DHT22;46342;49.046;11.920;2022-10-22T08:59:05;16.20;75.20
60495;DHT22;46342;49.046;11.920;2022-10-22T09:01:48;16.20;75.40
60495;DHT22;46342;49.046;11.920;2022-10-22T09:04:20;16.20;75.60
60495;DHT22;46342;49.046;11.920;2022-10-22T09:06:51;16.30;75.50
60495;DHT22;46342;49.046;11.920;2022-10-22T09:09:17;16.20;75.10
60495;DHT22;46342;49.046;11.920;2022-10-22T09:11:47;16.30;75.70
60495;DHT22;46342;49.046;11.920;2022-10-22T09:14:21;16.30;75.20
60495;DHT22;46342;49.046;11.920;2022-10-22T09:17:20;16.30;75.70
60495;DHT22;46342;49.046;11.920;2022-10-22T09:22:39;16.40;75.80
60495;DHT22;46342;49.046;11.920;2022-10-22T09:27:46;16.50;76.00
60495;DHT22;46342;49.046;11.920;2022-10-22T09:30:18;16.50;75.50
60495;DHT22;46342;49.046;11.920;2022-10-22T09:32:44;16.50;75.70
60495;DHT22;46342;49.046;11.920;2022-10-22T09:35:12;16.50;75.40
60495;DHT22;46342;49.046;11.920;2022-10-22T09:37:45;16.50;75.60
60495;DHT22;46342;49.046;11.920;2022-10-22T09:40:13;16.60;76.10
60495;DHT22;46342;49.046;11.920;2022-10-22T09:42:39;16.60;75.30
60495;DHT22;46342;49.046;11.920;2022-10-22T09:45:05;16.60;75.20
60495;DHT22;46342;49.046;11.920;2022-10-22T09:47:39;16.60;75.20
60495;DHT22;46342;49.046;11.920;2022-10-22T09:55:42;16.70;75.80
60495;DHT22;46342;49.046;11.920;2022-10-22T09:58:11;16.70;75.20
60495;DHT22;46342;49.046;11.920;2022-10-22T10:00:43;16.70;75.30
60495;DHT22;46342;49.046;11.920;2022-10-22T10:03:19;16.70;75.30
60495;DHT22;46342;49.046;11.920;2022-10-22T10:05:48;16.80;76.00
60495;DHT22;46342;49.046;11.920;2022-10-22T10:08:16;16.80;75.90
60495;DHT22;46342;49.046;11.920;2022-10-22T10:19:22;17.10;76.60
60495;DHT22;46342;49.046;11.920;2022-10-22T10:27:19;17.30;76.90
60495;DHT22;46342;49.046;11.920;2022-10-22T10:30:04;17.40;76.80
60495;DHT22;46342;49.046;11.920;2022-10-22T10:48:48;18.10;76.40
60495;DHT22;46342;49.046;11.920;2022-10-22T10:51:36;18.20;75.90
60495;DHT22;46342;49.046;11.920;2022-10-22T10:54:12;18.30;75.70
60495;DHT22;46342;49.046;11.920;2022-10-22T10:56:45;18.40;76.20
60495;DHT22;46342;49.046;11.920;2022-10-22T11:07:27;18.70;74.10
60495;DHT22;46342;49.046;11.920;2022-10-22T11:10:13;18.70;74.90
60495;DHT22;46342;49.046;11.920;2022-10-22T11:12:46;18.80;74.10
60495;DHT22;46342;49.046;11.920;2022-10-22T11:15:34;18.80;74.50
60495;DHT22;46342;49.046;11.920;2022-10-22T11:18:19;19.00;74.20
60495;DHT22;46342;49.046;11.920;2022-10-22T11:21:02;19.00;74.10
60495;DHT22;46342;49.046;11.920;2022-10-22T11:23:59;19.10;74.20
60495;DHT22;46342;49.046;11.920;2022-10-22T11:26:36;19.20;74.10
60495;DHT22;46342;49.046;11.920;2022-10-22T11:29:09;19.30;74.20
60495;DHT22;46342;49.046;11.920;2022-10-22T11:31:35;19.30;73.70
60495;DHT22;46342;49.046;11.920;2022-10-22T11:34:18;19.30;73.70
60495;DHT22;46342;49.046;11.920;2022-10-22T11:36:45;19.40;74.00
60495;DHT22;46342;49.046;11.920;2022-10-22T11:43:07;19.60;73.00
60495;DHT22;46342;49.046;11.920;2022-10-22T11:48:05;19.80;72.80
60495;DHT22;46342;49.046;11.920;2022-10-22T11:50:45;19.90;72.10
60495;DHT22;46342;49.046;11.920;2022-10-22T11:58:30;20.10;72.50
60495;DHT22;46342;49.046;11.920;2022-10-22T12:08:30;20.30;71.30
60495;DHT22;46342;49.046;11.920;2022-10-22T12:16:42;20.40;69.30
60495;DHT22;46342;49.046;11.920;2022-10-22T12:19:20;20.40;70.40
60495;DHT22;46342;49.046;11.920;2022-10-22T12:21:53;20.40;70.00
60495;DHT22;46342;49.046;11.920;2022-10-22T12:24:22;20.40;70.20
60495;DHT22;46342;49.046;11.920;2022-10-22T12:26:48;20.50;70.30
60495;DHT22;46342;49.046;11.920;2022-10-22T12:29:18;20.50;70.50
60495;DHT22;46342;49.046;11.920;2022-10-22T12:31:45;20.50;70.20
60495;DHT22;46342;49.046;11.920;2022-10-22T12:34:23;20.50;69.70
60495;DHT22;46342;49.046;11.920;2022-10-22T12:36:51;20.60;69.70
60495;DHT22;46342;49.046;11.920;2022-10-22T12:39:20;20.60;69.90
60495;DHT22;46342;49.046;11.920;2022-10-22T12:41:46;20.60;69.50
60495;DHT22;46342;49.046;11.920;2022-10-22T12:44:16;20.70;69.70
60495;DHT22;46342;49.046;11.920;2022-10-22T12:46:43;20.70;68.90
60495;DHT22;46342;49.046;11.920;2022-10-22T12:49:21;20.70;69.30
60495;DHT22;46342;49.046;11.920;2022-10-22T12:51:47;20.70;68.30
60495;DHT22;46342;49.046;11.920;2022-10-22T12:54:24;20.80;68.40
60495;DHT22;46342;49.046;11.920;2022-10-22T12:56:50;20.80;68.40
60495;DHT22;46342;49.046;11.920;2022-10-22T13:01:49;20.80;68.70
60495;DHT22;46342;49.046;11.920;2022-10-22T13:06:49;20.80;68.70
60495;DHT22;46342;49.046;11.920;2022-10-22T13:09:22;20.80;68.80
60495;DHT22;46342;49.046;11.920;2022-10-22T13:11:56;20.90;68.70
60495;DHT22;46342;49.046;11.920;2022-10-22T13:14:37;20.90;68.30
60495;DHT22;46342;49.046;11.920;2022-10-22T13:17:08;20.90;68.20
60495;DHT22;46342;49.046;11.920;2022-10-22T13:22:28;20.90;67.50
60495;DHT22;46342;49.046;11.920;2022-10-22T13:24:57;20.90;66.90
60495;DHT22;46342;49.046;11.920;2022-10-22T13:27:25;20.90;68.20
60495;DHT22;46342;49.046;11.920;2022-10-22T13:29:52;20.80;68.10
60495;DHT22;46342;49.046;11.920;2022-10-22T13:32:30;20.80;68.20
60495;DHT22;46342;49.046;11.920;2022-10-22T13:34:59;20.90;67.60
60495;DHT22;46342;49.046;11.920;2022-10-22T13:37:27;20.80;68.00
60495;DHT22;46342;49.046;11.920;2022-10-22T13:39:53;20.80;67.90
60495;DHT22;46342;49.046;11.920;2022-10-22T13:42:19;20.80;68.10
60495;DHT22;46342;49.046;11.920;2022-10-22T13:44:45;20.80;67.90
60495;DHT22;46342;49.046;11.920;2022-10-22T13:47:29;20.90;67.80
60495;DHT22;46342;49.046;11.920;2022-10-22T13:49:57;20.80;65.70
60495;DHT22;46342;49.046;11.920;2022-10-22T13:52:39;20.80;66.60
60495;DHT22;46342;49.046;11.920;2022-10-22T13:57:44;20.70;65.40
60495;DHT22;46342;49.046;11.920;2022-10-22T14:00:12;20.70;66.60
60495;DHT22;46342;49.046;11.920;2022-10-22T14:02:39;20.60;66.50
60495;DHT22;46342;49.046;11.920;2022-10-22T14:05:05;20.60;66.70
60495;DHT22;46342;49.046;11.920;2022-10-22T14:07:34;20.60;66.90
60495;DHT22;46342;49.046;11.920;2022-10-22T14:10:00;20.60;66.90
60495;DHT22;46342;49.046;11.920;2022-10-22T14:12:25;20.60;67.00
60495;DHT22;46342;49.046;11.920;2022-10-22T14:14:52;20.50;66.90
60495;DHT22;46342;49.046;11.920;2022-10-22T14:17:18;20.60;67.10
60495;DHT22;46342;49.046;11.920;2022-10-22T14:19:46;20.60;67.20
60495;DHT22;46342;49.046;11.920;2022-10-22T14:22:17;20.60;67.00
60495;DHT22;46342;49.046;11.920;2022-10-22T14:24:44;20.60;67.20
60495;DHT22;46342;49.046;11.920;2022-10-22T14:27:11;20.60;67.40
60495;DHT22;46342;49.046;11.920;2022-10-22T14:29:37;20.70;67.50
60495;DHT22;46342;49.046;11.920;2022-10-22T14:32:15;20.70;67.50
60495;DHT22;46342;49.046;11.920;2022-10-22T14:34:41;20.70;67.00
60495;DHT22;46342;49.046;11.920;2022-10-22T14:37:15;20.80;67.20
60495;DHT22;46342;49.046;11.920;2022-10-22T14:39:41;20.80;66.10
60495;DHT22;46342;49.046;11.920;2022-10-22T14:42:10;20.80;66.90
60495;DHT22;46342;49.046;11.920;2022-10-22T14:44:35;20.80;66.20
60495;DHT22;46342;49.046;11.920;2022-10-22T14:47:01;20.90;66.60
60495;DHT22;46342;49.046;11.920;2022-10-22T14:49:26;20.80;66.40
60495;DHT22;46342;49.046;11.920;2022-10-22T14:51:52;20.80;66.40
60495;DHT22;46342;49.046;11.920;2022-10-22T14:54:18;20.80;67.40
60495;DHT22;46342;49.046;11.920;2022-10-22T14:56:43;20.90;66.60
60495;DHT22;46342;49.046;11.920;2022-10-22T14:59:09;20.90;66.60
60495;DHT22;46342;49.046;11.920;2022-10-22T15:01:34;20.90;66.50
60495;DHT22;46342;49.046;11.920;2022-10-22T15:04:00;20.90;66.50
60495;DHT22;46342;49.046;11.920;2022-10-22T15:06:25;20.90;66.50
60495;DHT22;46342;49.046;11.920;2022-10-22T15:08:51;20.90;66.30
60495;DHT22;46342;49.046;11.920;2022-10-22T15:11:17;20.90;66.20
60495;DHT22;46342;49.046;11.920;2022-10-22T15:13:42;20.90;66.10
60495;DHT22;46342;49.046;11.920;2022-10-22T15:16:09;20.80;65.90
60495;DHT22;46342;49.046;11.920;2022-10-22T15:18:35;20.80;65.60
60495;DHT22;46342;49.046;11.920;2022-10-22T15:21:06;20.80;65.70
60495;DHT22;46342;49.046;11.920;2022-10-22T15:23:32;20.80;65.60
60495;DHT22;46342;49.046;11.920;2022-10-22T15:25:58;20.70;65.60
60495;DHT22;46342;49.046;11.920;2022-10-22T15:28:24;20.70;65.60
60495;DHT22;46342;49.046;11.920;2022-10-22T15:30:58;20.60;65.50
60495;DHT22;46342;49.046;11.920;2022-10-22T15:33:25;20.60;64.80
60495;DHT22;46342;49.046;11.920;2022-10-22T15:35:51;20.60;65.30
60495;DHT22;46342;49.046;11.920;2022-10-22T15:38:16;20.50;65.20
60495;DHT22;46342;49.046;11.920;2022-10-22T15:40:42;20.40;65.10
60495;DHT22;46342;49.046;11.920;2022-10-22T15:43:08;20.40;65.20
60495;DHT22;46342;49.046;11.920;2022-10-22T15:45:34;20.30;65.10
60495;DHT22;46342;49.046;11.920;2022-10-22T15:48:00;20.20;65.10
60495;DHT22;46342;49.046;11.920;2022-10-22T15:50:25;20.20;65.20
60495;DHT22;46342;49.046;11.920;2022-10-22T15:52:51;20.10;65.10
60495;DHT22;46342;49.046;11.920;2022-10-22T15:55:17;20.10;65.20
60495;DHT22;46342;49.046;11.920;2022-10-22T15:57:43;20.00;65.10
60495;DHT22;46342;49.046;11.920;2022-10-22T16:00:09;20.00;65.20
60495;DHT22;46342;49.046;11.920;2022-10-22T16:02:35;19.90;65.20
60495;DHT22;46342;49.046;11.920;2022-10-22T16:05:00;19.80;65.10
60495;DHT22;46342;49.046;11.920;2022-10-22T16:07:26;19.80;65.20
60495;DHT22;46342;49.046;11.920;2022-10-22T16:09:56;19.70;65.20
60495;DHT22;46342;49.046;11.920;2022-10-22T16:12:22;19.70;65.20
60495;DHT22;46342;49.046;11.920;2022-10-22T16:14:51;19.60;65.20
60495;DHT22;46342;49.046;11.920;2022-10-22T16:17:17;19.50;65.00
60495;DHT22;46342;49.046;11.920;2022-10-22T16:19:43;19.50;65.20
60495;DHT22;46342;49.046;11.920;2022-10-22T16:22:08;19.40;65.10
60495;DHT22;46342;49.046;11.920;2022-10-22T16:24:36;19.30;65.00
60495;DHT22;46342;49.046;11.920;2022-10-22T16:27:06;19.30;65.10
60495;DHT22;46342;49.046;11.920;2022-10-22T16:29:32;19.20;65.10
60495;DHT22;46342;49.046;11.920;2022-10-22T16:31:57;19.10;65.00
60495;DHT22;46342;49.046;11.920;2022-10-22T16:34:25;19.10;65.10
60495;DHT22;46342;49.046;11.920;2022-10-22T16:36:51;19.00;64.90
60495;DHT22;46342;49.046;11.920;2022-10-22T16:39:18;18.90;65.00
60495;DHT22;46342;49.046;11.920;2022-10-22T16:41:44;18.90;65.00
60495;DHT22;46342;49.046;11.920;2022-10-22T16:44:09;18.80;65.00
60495;DHT22;46342;49.046;11.920;2022-10-22T16:46:36;18.70;64.90
60495;DHT22;46342;49.046;11.920;2022-10-22T16:49:03;18.60;64.80
60495;DHT22;46342;49.046;11.920;2022-10-22T16:51:29;18.50;64.80
60495;DHT22;46342;49.046;11.920;2022-10-22T16:53:56;18.50;65.00
60495;DHT22;46342;49.046;11.920;2022-10-22T16:56:22;18.40;64.80
60495;DHT22;46342;49.046;11.920;2022-10-22T16:58:51;18.30;64.70
60495;DHT22;46342;49.046;11.920;2022-10-22T17:01:19;18.30;64.70
60495;DHT22;46342;49.046;11.920;2022-10-22T17:03:45;18.20;64.60
60495;DHT22;46342;49.046;11.920;2022-10-22T17:06:11;18.10;64.60
60495;DHT22;46342;49.046;11.920;2022-10-22T17:08:37;18.10;64.70
60495;DHT22;46342;49.046;11.920;2022-10-22T17:11:08;18.00;64.60
60495;DHT22;46342;49.046;11.920;2022-10-22T17:13:34;17.90;64.60
60495;DHT22;46342;49.046;11.920;2022-10-22T17:16:05;17.90;64.60
60495;DHT22;46342;49.046;11.920;2022-10-22T17:18:31;17.80;64.40
60495;DHT22;46342;49.046;11.920;2022-10-22T17:20:57;17.70;64.50
60495;DHT22;46342;49.046;11.920;2022-10-22T17:23:24;17.70;64.70
60495;DHT22;46342;49.046;11.920;2022-10-22T17:25:57;17.60;64.70
60495;DHT22;46342;49.046;11.920;2022-10-22T17:28:24;17.60;64.70
60495;DHT22;46342;49.046;11.920;2022-10-22T17:30:49;17.50;64.80
60495;DHT22;46342;49.046;11.920;2022-10-22T17:33:15;17.40;64.70